sensor_id;sensor_type;location;lat;lon;timestamp;P1;durP1;ratioP1;P2;durP2;ratioP2
53714;SDS011;39608;55.630;37.864;2023-04-28T00:01:03;8.93;;;4.57;;
53714;SDS011;39608;55.630;37.864;2023-04-28T00:06:05;7.38;;;4.53;;
53714;SDS011;39608;55.630;37.864;2023-04-28T00:11:09;9.50;;;4.95;;
53714;SDS011;39608;55.630;37.864;2023-04-28T00:16:11;13.82;;;4.95;;
53714;SDS011;39608;55.630;37.864;2023-04-28T00:21:13;7.35;;;4.65;;
53714;SDS011;39608;55.630;37.864;2023-04-28T00:26:18;8.93;;;4.70;;
53714;SDS011;39608;55.630;37.864;2023-04-28T00:31:20;4.75;;;3.88;;
53714;SDS011;39608;55.630;37.864;2023-04-28T00:36:22;6.60;;;4.88;;
53714;SDS011;39608;55.630;37.864;2023-04-28T00:41:26;10.27;;;4.63;;
53714;SDS011;39608;55.630;37.864;2023-04-28T00:46:28;8.35;;;4.45;;
53714;SDS011;39608;55.630;37.864;2023-04-28T00:51:32;6.88;;;4.25;;
53714;SDS011;39608;55.630;37.864;2023-04-28T00:56:35;6.90;;;4.40;;
53714;SDS011;39608;55.630;37.864;2023-04-28T01:01:37;6.55;;;4.90;;
53714;SDS011;39608;55.630;37.864;2023-04-28T01:06:40;4.90;;;4.20;;
53714;SDS011;39608;55.630;37.864;2023-04-28T01:11:44;10.82;;;4.55;;
53714;SDS011;39608;55.630;37.864;2023-04-28T01:16:46;8.27;;;4.88;;
53714;SDS011;39608;55.630;37.864;2023-04-28T01:21:48;8.98;;;4.53;;
53714;SDS011;39608;55.630;37.864;2023-04-28T01:26:52;7.32;;;4.43;;
53714;SDS011;39608;55.630;37.864;2023-04-28T01:31:54;8.07;;;4.85;;
53714;SDS011;39608;55.630;37.864;2023-04-28T01:36:56;9.02;;;5.00;;
53714;SDS011;39608;55.630;37.864;2023-04-28T01:42:00;5.72;;;4.38;;
53714;SDS011;39608;55.630;37.864;2023-04-28T01:47:02;6.63;;;4.25;;
53714;SDS011;39608;55.630;37.864;2023-04-28T01:52:05;5.50;;;4.82;;
53714;SDS011;39608;55.630;37.864;2023-04-28T01:57:08;16.33;;;5.18;;
53714;SDS011;39608;55.630;37.864;2023-04-28T02:02:10;10.80;;;4.78;;
53714;SDS011;39608;55.630;37.864;2023-04-28T02:07:12;11.43;;;5.47;;
53714;SDS011;39608;55.630;37.864;2023-04-28T02:12:16;7.47;;;4.82;;
53714;SDS011;39608;55.630;37.864;2023-04-28T02:17:18;7.80;;;5.10;;
53714;SDS011;39608;55.630;37.864;2023-04-28T02:22:20;6.28;;;4.57;;
53714;SDS011;39608;55.630;37.864;2023-04-28T02:27:23;8.65;;;4.53;;
53714;SDS011;39608;55.630;37.864;2023-04-28T02:32:25;7.53;;;4.80;;
53714;SDS011;39608;55.630;37.864;2023-04-28T02:37:27;14.27;;;5.20;;
53714;SDS011;39608;55.630;37.864;2023-04-28T02:42:31;8.73;;;5.13;;
53714;SDS011;39608;55.630;37.864;2023-04-28T02:47:33;8.18;;;5.15;;
53714;SDS011;39608;55.630;37.864;2023-04-28T02:52:36;8.45;;;4.57;;
53714;SDS011;39608;55.630;37.864;2023-04-28T02:57:39;10.88;;;4.90;;
53714;SDS011;39608;55.630;37.864;2023-04-28T03:02:41;8.80;;;4.88;;
53714;SDS011;39608;55.630;37.864;2023-04-28T03:07:43;9.05;;;4.88;;
53714;SDS011;39608;55.630;37.864;2023-04-28T03:12:47;5.68;;;4.38;;
53714;SDS011;39608;55.630;37.864;2023-04-28T03:17:48;7.32;;;4.30;;
53714;SDS011;39608;55.630;37.864;2023-04-28T03:22:50;10.63;;;4.93;;
53714;SDS011;39608;55.630;37.864;2023-04-28T03:27:54;9.93;;;5.22;;
53714;SDS011;39608;55.630;37.864;2023-04-28T03:32:56;14.38;;;5.38;;
53714;SDS011;39608;55.630;37.864;2023-04-28T03:37:58;8.57;;;4.93;;
53714;SDS011;39608;55.630;37.864;2023-04-28T03:43:01;15.52;;;5.40;;
53714;SDS011;39608;55.630;37.864;2023-04-28T03:48:04;10.15;;;5.13;;
53714;SDS011;39608;55.630;37.864;2023-04-28T03:53:06;9.25;;;4.30;;
53714;SDS011;39608;55.630;37.864;2023-04-28T03:58:09;9.75;;;4.60;;
53714;SDS011;39608;55.630;37.864;2023-04-28T04:03:11;14.00;;;5.25;;
53714;SDS011;39608;55.630;37.864;2023-04-28T04:08:13;5.03;;;4.10;;
53714;SDS011;39608;55.630;37.864;2023-04-28T04:13:17;7.82;;;5.60;;
53714;SDS011;39608;55.630;37.864;2023-04-28T04:18:19;14.77;;;3.97;;
53714;SDS011;39608;55.630;37.864;2023-04-28T04:23:21;5.00;;;4.50;;
53714;SDS011;39608;55.630;37.864;2023-04-28T04:28:25;9.27;;;5.15;;
53714;SDS011;39608;55.630;37.864;2023-04-28T04:33:27;5.95;;;4.18;;
53714;SDS011;39608;55.630;37.864;2023-04-28T04:38:29;8.40;;;4.18;;
53714;SDS011;39608;55.630;37.864;2023-04-28T04:43:33;7.03;;;4.00;;
53714;SDS011;39608;55.630;37.864;2023-04-28T04:48:35;5.25;;;3.97;;
53714;SDS011;39608;55.630;37.864;2023-04-28T04:53:37;6.93;;;4.00;;
53714;SDS011;39608;55.630;37.864;2023-04-28T04:58:42;6.90;;;3.85;;
53714;SDS011;39608;55.630;37.864;2023-04-28T05:03:44;6.00;;;3.53;;
53714;SDS011;39608;55.630;37.864;2023-04-28T05:08:46;4.50;;;3.67;;
53714;SDS011;39608;55.630;37.864;2023-04-28T05:13:50;9.88;;;3.92;;
53714;SDS011;39608;55.630;37.864;2023-04-28T05:18:52;6.80;;;3.38;;
53714;SDS011;39608;55.630;37.864;2023-04-28T05:23:54;12.95;;;3.88;;
53714;SDS011;39608;55.630;37.864;2023-04-28T05:28:58;7.70;;;3.72;;
53714;SDS011;39608;55.630;37.864;2023-04-28T05:34:00;12.90;;;4.30;;
53714;SDS011;39608;55.630;37.864;2023-04-28T05:39:06;8.55;;;4.00;;
53714;SDS011;39608;55.630;37.864;2023-04-28T05:44:18;6.05;;;4.30;;
53714;SDS011;39608;55.630;37.864;2023-04-28T05:49:20;6.72;;;4.15;;
53714;SDS011;39608;55.630;37.864;2023-04-28T05:54:24;8.32;;;5.10;;
53714;SDS011;39608;55.630;37.864;2023-04-28T05:59:28;8.35;;;5.18;;
53714;SDS011;39608;55.630;37.864;2023-04-28T06:04:30;7.15;;;5.30;;
53714;SDS011;39608;55.630;37.864;2023-04-28T06:09:33;6.32;;;4.60;;
53714;SDS011;39608;55.630;37.864;2023-04-28T06:14:36;16.42;;;6.38;;
53714;SDS011;39608;55.630;37.864;2023-04-28T06:19:39;18.95;;;8.40;;
53714;SDS011;39608;55.630;37.864;2023-04-28T06:24:41;6.32;;;5.05;;
53714;SDS011;39608;55.630;37.864;2023-04-28T06:29:45;7.32;;;4.82;;
53714;SDS011;39608;55.630;37.864;2023-04-28T06:34:47;9.27;;;3.95;;
53714;SDS011;39608;55.630;37.864;2023-04-28T06:39:49;7.82;;;3.75;;
53714;SDS011;39608;55.630;37.864;2023-04-28T06:44:52;7.32;;;4.47;;
53714;SDS011;39608;55.630;37.864;2023-04-28T06:49:55;7.35;;;3.97;;
53714;SDS011;39608;55.630;37.864;2023-04-28T06:54:57;10.63;;;4.40;;
53714;SDS011;39608;55.630;37.864;2023-04-28T07:00:01;7.25;;;4.28;;
53714;SDS011;39608;55.630;37.864;2023-04-28T07:05:05;5.55;;;3.70;;
53714;SDS011;39608;55.630;37.864;2023-04-28T07:10:08;3.97;;;3.58;;
53714;SDS011;39608;55.630;37.864;2023-04-28T08:53:58;4.10;;;3.03;;
53714;SDS011;39608;55.630;37.864;2023-04-28T08:59:04;5.00;;;3.40;;
53714;SDS011;39608;55.630;37.864;2023-04-28T09:04:06;4.13;;;3.35;;
53714;SDS011;39608;55.630;37.864;2023-04-28T09:09:24;5.90;;;3.85;;
53714;SDS011;39608;55.630;37.864;2023-04-28T09:14:27;7.53;;;3.85;;
53714;SDS011;39608;55.630;37.864;2023-04-28T09:19:33;5.25;;;3.90;;
53714;SDS011;39608;55.630;37.864;2023-04-28T09:24:38;4.87;;;3.53;;
53714;SDS011;39608;55.630;37.864;2023-04-28T09:29:50;6.63;;;3.97;;
53714;SDS011;39608;55.630;37.864;2023-04-28T09:34:53;9.93;;;4.18;;
53714;SDS011;39608;55.630;37.864;2023-04-28T09:40:02;4.63;;;4.15;;
53714;SDS011;39608;55.630;37.864;2023-04-28T09:45:08;6.30;;;4.82;;
53714;SDS011;39608;55.630;37.864;2023-04-28T09:50:12;4.45;;;4.03;;
53714;SDS011;39608;55.630;37.864;2023-04-28T09:55:17;7.38;;;4.28;;
53714;SDS011;39608;55.630;37.864;2023-04-28T10:00:20;9.35;;;4.75;;
53714;SDS011;39608;55.630;37.864;2023-04-28T10:05:23;9.80;;;4.85;;
53714;SDS011;39608;55.630;37.864;2023-04-28T10:10:26;9.68;;;5.22;;
53714;SDS011;39608;55.630;37.864;2023-04-28T10:15:30;5.88;;;4.82;;
53714;SDS011;39608;55.630;37.864;2023-04-28T10:20:33;8.43;;;4.68;;
53714;SDS011;39608;55.630;37.864;2023-04-28T10:25:38;5.47;;;4.95;;
53714;SDS011;39608;55.630;37.864;2023-04-28T10:30:42;4.90;;;4.50;;
53714;SDS011;39608;55.630;37.864;2023-04-28T10:36:46;8.23;;;5.35;;
53714;SDS011;39608;55.630;37.864;2023-04-28T10:41:51;5.50;;;4.43;;
53714;SDS011;39608;55.630;37.864;2023-04-28T10:46:58;7.70;;;4.93;;
53714;SDS011;39608;55.630;37.864;2023-04-28T10:52:01;6.68;;;5.40;;
53714;SDS011;39608;55.630;37.864;2023-04-28T10:57:28;7.90;;;5.20;;
53714;SDS011;39608;55.630;37.864;2023-04-28T11:02:40;6.38;;;4.43;;
53714;SDS011;39608;55.630;37.864;2023-04-28T11:13:35;5.07;;;4.65;;
53714;SDS011;39608;55.630;37.864;2023-04-28T11:18:47;8.35;;;5.35;;
53714;SDS011;39608;55.630;37.864;2023-04-28T11:23:51;7.15;;;4.90;;
53714;SDS011;39608;55.630;37.864;2023-04-28T11:28:55;11.20;;;4.80;;
53714;SDS011;39608;55.630;37.864;2023-04-28T11:33:59;6.25;;;4.88;;
53714;SDS011;39608;55.630;37.864;2023-04-28T11:39:06;12.07;;;4.87;;
53714;SDS011;39608;55.630;37.864;2023-04-28T11:44:11;4.50;;;3.75;;
53714;SDS011;39608;55.630;37.864;2023-04-28T11:49:14;5.32;;;4.18;;
53714;SDS011;39608;55.630;37.864;2023-04-28T11:54:20;8.18;;;4.38;;
53714;SDS011;39608;55.630;37.864;2023-04-28T11:59:26;7.40;;;4.20;;
53714;SDS011;39608;55.630;37.864;2023-04-28T12:04:30;4.78;;;4.13;;
53714;SDS011;39608;55.630;37.864;2023-04-28T12:09:35;5.35;;;4.85;;
53714;SDS011;39608;55.630;37.864;2023-04-28T12:14:56;9.00;;;4.38;;
53714;SDS011;39608;55.630;37.864;2023-04-28T12:20:00;5.68;;;4.60;;
53714;SDS011;39608;55.630;37.864;2023-04-28T12:25:06;6.18;;;4.70;;
53714;SDS011;39608;55.630;37.864;2023-04-28T12:30:27;6.97;;;5.40;;
53714;SDS011;39608;55.630;37.864;2023-04-28T12:35:30;7.75;;;5.25;;
53714;SDS011;39608;55.630;37.864;2023-04-28T12:40:32;7.88;;;5.40;;
53714;SDS011;39608;55.630;37.864;2023-04-28T12:45:36;7.30;;;6.18;;
53714;SDS011;39608;55.630;37.864;2023-04-28T12:50:39;8.82;;;6.55;;
53714;SDS011;39608;55.630;37.864;2023-04-28T12:55:41;6.18;;;5.57;;
53714;SDS011;39608;55.630;37.864;2023-04-28T13:00:45;8.75;;;6.10;;
53714;SDS011;39608;55.630;37.864;2023-04-28T13:05:47;10.68;;;7.00;;
53714;SDS011;39608;55.630;37.864;2023-04-28T13:10:49;11.07;;;7.47;;
53714;SDS011;39608;55.630;37.864;2023-04-28T13:15:52;12.68;;;7.78;;
53714;SDS011;39608;55.630;37.864;2023-04-28T13:20:54;8.73;;;7.70;;
53714;SDS011;39608;55.630;37.864;2023-04-28T13:25:56;13.02;;;7.90;;
53714;SDS011;39608;55.630;37.864;2023-04-28T13:31:01;11.25;;;7.80;;
53714;SDS011;39608;55.630;37.864;2023-04-28T13:36:04;12.52;;;8.82;;
53714;SDS011;39608;55.630;37.864;2023-04-28T13:41:07;11.35;;;8.55;;
53714;SDS011;39608;55.630;37.864;2023-04-28T13:46:11;11.95;;;8.52;;
53714;SDS011;39608;55.630;37.864;2023-04-28T13:51:14;16.17;;;6.47;;
53714;SDS011;39608;55.630;37.864;2023-04-28T13:56:16;9.18;;;6.60;;
53714;SDS011;39608;55.630;37.864;2023-04-28T14:01:19;6.25;;;5.15;;
53714;SDS011;39608;55.630;37.864;2023-04-28T14:06:21;8.73;;;5.30;;
53714;SDS011;39608;55.630;37.864;2023-04-28T14:11:23;8.55;;;5.30;;
53714;SDS011;39608;55.630;37.864;2023-04-28T14:16:27;7.65;;;5.55;;
53714;SDS011;39608;55.630;37.864;2023-04-28T14:21:29;7.57;;;5.43;;
53714;SDS011;39608;55.630;37.864;2023-04-28T14:26:32;10.75;;;5.10;;
53714;SDS011;39608;55.630;37.864;2023-04-28T14:31:36;10.68;;;5.25;;
53714;SDS011;39608;55.630;37.864;2023-04-28T14:36:38;7.13;;;4.00;;
53714;SDS011;39608;55.630;37.864;2023-04-28T14:41:41;11.95;;;4.25;;
53714;SDS011;39608;55.630;37.864;2023-04-28T14:46:44;5.60;;;3.88;;
53714;SDS011;39608;55.630;37.864;2023-04-28T14:51:47;4.50;;;3.47;;
53714;SDS011;39608;55.630;37.864;2023-04-28T14:56:50;4.72;;;3.40;;
53714;SDS011;39608;55.630;37.864;2023-04-28T15:01:53;4.68;;;3.30;;
53714;SDS011;39608;55.630;37.864;2023-04-28T15:06:56;3.85;;;3.10;;
53714;SDS011;39608;55.630;37.864;2023-04-28T15:12:00;6.70;;;3.40;;
53714;SDS011;39608;55.630;37.864;2023-04-28T15:17:04;5.13;;;3.20;;
53714;SDS011;39608;55.630;37.864;2023-04-28T15:22:06;4.15;;;2.70;;
53714;SDS011;39608;55.630;37.864;2023-04-28T15:27:08;5.05;;;3.05;;
53714;SDS011;39608;55.630;37.864;2023-04-28T15:32:11;8.45;;;3.05;;
53714;SDS011;39608;55.630;37.864;2023-04-28T15:42:42;4.32;;;2.70;;
53714;SDS011;39608;55.630;37.864;2023-04-28T15:47:49;2.77;;;2.13;;
53714;SDS011;39608;55.630;37.864;2023-04-28T15:52:54;3.05;;;1.80;;
53714;SDS011;39608;55.630;37.864;2023-04-28T15:57:57;9.57;;;1.58;;
53714;SDS011;39608;55.630;37.864;2023-04-28T16:03:01;11.35;;;2.50;;
53714;SDS011;39608;55.630;37.864;2023-04-28T16:08:03;3.90;;;2.20;;
53714;SDS011;39608;55.630;37.864;2023-04-28T16:13:05;1.90;;;1.73;;
53714;SDS011;39608;55.630;37.864;2023-04-28T16:18:12;2.30;;;2.03;;
53714;SDS011;39608;55.630;37.864;2023-04-28T16:23:14;2.70;;;1.67;;
53714;SDS011;39608;55.630;37.864;2023-04-28T16:28:17;5.07;;;2.10;;
53714;SDS011;39608;55.630;37.864;2023-04-28T16:33:20;2.17;;;1.55;;
53714;SDS011;39608;55.630;37.864;2023-04-28T16:38:22;2.25;;;1.83;;
53714;SDS011;39608;55.630;37.864;2023-04-28T16:43:24;8.80;;;1.98;;
53714;SDS011;39608;55.630;37.864;2023-04-28T16:48:28;11.55;;;1.80;;
53714;SDS011;39608;55.630;37.864;2023-04-28T16:53:30;7.35;;;1.60;;
53714;SDS011;39608;55.630;37.864;2023-04-28T16:58:32;9.40;;;1.63;;
53714;SDS011;39608;55.630;37.864;2023-04-28T17:03:35;3.20;;;2.38;;
53714;SDS011;39608;55.630;37.864;2023-04-28T17:08:40;5.10;;;2.40;;
53714;SDS011;39608;55.630;37.864;2023-04-28T17:13:43;6.40;;;2.33;;
53714;SDS011;39608;55.630;37.864;2023-04-28T17:18:46;11.13;;;2.45;;
53714;SDS011;39608;55.630;37.864;2023-04-28T17:23:48;1.95;;;1.63;;
53714;SDS011;39608;55.630;37.864;2023-04-28T17:28:51;3.35;;;1.85;;
53714;SDS011;39608;55.630;37.864;2023-04-28T17:33:56;3.08;;;1.80;;
53714;SDS011;39608;55.630;37.864;2023-04-28T17:38:59;4.63;;;1.90;;
53714;SDS011;39608;55.630;37.864;2023-04-28T17:44:02;2.88;;;1.90;;
53714;SDS011;39608;55.630;37.864;2023-04-28T17:49:06;3.15;;;1.90;;
53714;SDS011;39608;55.630;37.864;2023-04-28T17:54:09;4.30;;;1.58;;
53714;SDS011;39608;55.630;37.864;2023-04-28T17:59:11;4.00;;;1.55;;
53714;SDS011;39608;55.630;37.864;2023-04-28T18:04:15;4.50;;;1.80;;
53714;SDS011;39608;55.630;37.864;2023-04-28T18:09:17;4.18;;;1.83;;
53714;SDS011;39608;55.630;37.864;2023-04-28T18:14:19;7.97;;;1.50;;
53714;SDS011;39608;55.630;37.864;2023-04-28T18:19:23;2.30;;;1.70;;
53714;SDS011;39608;55.630;37.864;2023-04-28T18:24:26;4.15;;;1.77;;
53714;SDS011;39608;55.630;37.864;2023-04-28T18:29:28;1.73;;;1.55;;
53714;SDS011;39608;55.630;37.864;2023-04-28T18:34:32;1.50;;;1.40;;
53714;SDS011;39608;55.630;37.864;2023-04-28T18:39:35;2.40;;;1.95;;
53714;SDS011;39608;55.630;37.864;2023-04-28T18:44:37;4.25;;;1.80;;
53714;SDS011;39608;55.630;37.864;2023-04-28T18:49:41;9.38;;;2.00;;
53714;SDS011;39608;55.630;37.864;2023-04-28T18:54:44;3.13;;;2.00;;
53714;SDS011;39608;55.630;37.864;2023-04-28T18:59:46;2.30;;;2.05;;
53714;SDS011;39608;55.630;37.864;2023-04-28T19:04:50;4.10;;;2.25;;
53714;SDS011;39608;55.630;37.864;2023-04-28T19:09:52;4.07;;;2.20;;
53714;SDS011;39608;55.630;37.864;2023-04-28T19:14:54;6.53;;;2.53;;
53714;SDS011;39608;55.630;37.864;2023-04-28T19:19:57;8.32;;;2.25;;
53714;SDS011;39608;55.630;37.864;2023-04-28T19:25:00;6.53;;;2.17;;
53714;SDS011;39608;55.630;37.864;2023-04-28T19:30:05;5.90;;;2.28;;
53714;SDS011;39608;55.630;37.864;2023-04-28T19:35:11;2.47;;;2.28;;
53714;SDS011;39608;55.630;37.864;2023-04-28T19:40:13;2.50;;;2.30;;
53714;SDS011;39608;55.630;37.864;2023-04-28T19:45:16;5.80;;;3.38;;
53714;SDS011;39608;55.630;37.864;2023-04-28T19:50:20;4.13;;;2.80;;
53714;SDS011;39608;55.630;37.864;2023-04-28T19:55:22;3.88;;;3.30;;
53714;SDS011;39608;55.630;37.864;2023-04-28T20:00:25;3.75;;;3.45;;
53714;SDS011;39608;55.630;37.864;2023-04-28T20:05:29;4.13;;;3.72;;
53714;SDS011;39608;55.630;37.864;2023-04-28T20:10:31;3.95;;;3.28;;
53714;SDS011;39608;55.630;37.864;2023-04-28T20:15:33;3.45;;;3.05;;
53714;SDS011;39608;55.630;37.864;2023-04-28T20:20:36;7.63;;;3.53;;
53714;SDS011;39608;55.630;37.864;2023-04-28T20:25:38;4.28;;;3.78;;
53714;SDS011;39608;55.630;37.864;2023-04-28T20:30:41;4.53;;;3.30;;
53714;SDS011;39608;55.630;37.864;2023-04-28T20:35:44;5.32;;;2.63;;
53714;SDS011;39608;55.630;37.864;2023-04-28T20:40:46;3.33;;;2.63;;
53714;SDS011;39608;55.630;37.864;2023-04-28T20:45:48;6.13;;;2.45;;
53714;SDS011;39608;55.630;37.864;2023-04-28T20:50:51;2.42;;;2.03;;
53714;SDS011;39608;55.630;37.864;2023-04-28T20:55:54;5.20;;;1.90;;
53714;SDS011;39608;55.630;37.864;2023-04-28T21:00:57;2.45;;;2.25;;
53714;SDS011;39608;55.630;37.864;2023-04-28T21:06:00;2.00;;;1.70;;
53714;SDS011;39608;55.630;37.864;2023-04-28T21:11:02;1.98;;;1.42;;
53714;SDS011;39608;55.630;37.864;2023-04-28T21:16:10;1.40;;;1.30;;
53714;SDS011;39608;55.630;37.864;2023-04-28T21:21:14;2.83;;;1.30;;
53714;SDS011;39608;55.630;37.864;2023-04-28T21:26:16;1.83;;;1.00;;
53714;SDS011;39608;55.630;37.864;2023-04-28T21:31:19;3.50;;;1.30;;
53714;SDS011;39608;55.630;37.864;2023-04-28T21:36:24;1.05;;;1.05;;
53714;SDS011;39608;55.630;37.864;2023-04-28T21:41:26;1.75;;;1.30;;
53714;SDS011;39608;55.630;37.864;2023-04-28T21:46:28;2.40;;;1.10;;
53714;SDS011;39608;55.630;37.864;2023-04-28T21:51:31;1.92;;;1.13;;
53714;SDS011;39608;55.630;37.864;2023-04-28T21:56:33;0.98;;;0.98;;
53714;SDS011;39608;55.630;37.864;2023-04-28T22:01:36;0.80;;;0.80;;
53714;SDS011;39608;55.630;37.864;2023-04-28T22:06:39;1.00;;;0.90;;
53714;SDS011;39608;55.630;37.864;2023-04-28T22:11:42;1.52;;;1.15;;
53714;SDS011;39608;55.630;37.864;2023-04-28T22:16:44;1.42;;;1.10;;
53714;SDS011;39608;55.630;37.864;2023-04-28T22:21:47;1.38;;;1.13;;
53714;SDS011;39608;55.630;37.864;2023-04-28T22:26:50;3.75;;;1.20;;
53714;SDS011;39608;55.630;37.864;2023-04-28T22:31:51;1.55;;;1.45;;
53714;SDS011;39608;55.630;37.864;2023-04-28T22:36:55;1.00;;;1.00;;
53714;SDS011;39608;55.630;37.864;2023-04-28T22:41:57;1.60;;;1.50;;
53714;SDS011;39608;55.630;37.864;2023-04-28T22:46:59;1.75;;;1.05;;
53714;SDS011;39608;55.630;37.864;2023-04-28T22:52:04;3.25;;;1.40;;
53714;SDS011;39608;55.630;37.864;2023-04-28T22:57:06;2.33;;;1.20;;
53714;SDS011;39608;55.630;37.864;2023-04-28T23:02:08;1.00;;;0.95;;
53714;SDS011;39608;55.630;37.864;2023-04-28T23:07:13;13.43;;;1.45;;
53714;SDS011;39608;55.630;37.864;2023-04-28T23:12:15;1.65;;;1.20;;
53714;SDS011;39608;55.630;37.864;2023-04-28T23:17:17;0.90;;;0.90;;
53714;SDS011;39608;55.630;37.864;2023-04-28T23:22:21;0.95;;;0.95;;
53714;SDS011;39608;55.630;37.864;2023-04-28T23:27:23;1.00;;;0.98;;
53714;SDS011;39608;55.630;37.864;2023-04-28T23:32:25;1.25;;;0.75;;
53714;SDS011;39608;55.630;37.864;2023-04-28T23:37:28;1.75;;;1.05;;
53714;SDS011;39608;55.630;37.864;2023-04-28T23:42:30;0.68;;;0.68;;
53714;SDS011;39608;55.630;37.864;2023-04-28T23:47:32;3.90;;;0.80;;
53714;SDS011;39608;55.630;37.864;2023-04-28T23:52:36;4.63;;;0.70;;
53714;SDS011;39608;55.630;37.864;2023-04-28T23:57:39;0.68;;;0.50;;
